Time;durP1;ratioP1;P1;durP2;ratioP2;P2;SDS_P1;SDS_P2;PMS_P1;PMS_P2;Temp;Humidity;BMP_temperature;BMP_pressure;BME280_temperature;BME280_humidity;BME280_pressure;Samples;Min_cycle;Max_cycle;Signal;HPM_P1;HPM_P2
2022/07/24 08:36:35;;;;;;;19.00;14.52;;;;;;;;;;5109851;27;20311;-65
2022/07/24 08:39:02;;;;;;;18.30;13.52;;;;;;;;;;5109478;28;20030;-65
2022/07/24 08:41:35;;;;;;;19.27;14.32;;;;;;;;;;5109558;28;20020;-65
2022/07/24 08:44:02;;;;;;;21.25;15.13;;;;;;;;;;5109522;28;20016;-66
2022/07/24 08:46:29;;;;;;;18.48;13.80;;;;;;;;;;5109491;28;20020;-66
2022/07/24 08:48:55;;;;;;;21.00;14.50;;;;;;;;;;5107780;28;20093;-65
2022/07/24 08:51:22;;;;;;;21.30;14.85;;;;;;;;;;5108170;28;20020;-65
2022/07/24 08:53:49;;;;;;;18.48;14.63;;;;;;;;;;5108191;28;20102;-65
2022/07/24 08:56:17;;;;;;;18.67;13.83;;;;;;;;;;5109255;28;20024;-66
2022/07/24 08:58:43;;;;;;;19.25;14.15;;;;;;;;;;5109199;28;20421;-65
2022/07/24 09:01:09;;;;;;;18.05;14.45;;;;;;;;;;5108441;28;20051;-65
2022/07/24 09:03:42;;;;;;;21.40;15.05;;;;;;;;;;5109172;28;20397;-65
2022/07/24 09:06:10;;;;;;;19.80;14.05;;;;;;;;;;5109145;28;20027;-65
2022/07/24 09:08:36;;;;;;;21.83;14.95;;;;;;;;;;5109056;28;20043;-65
2022/07/24 09:11:04;;;;;;;18.95;14.43;;;;;;;;;;5107912;28;20024;-65
2022/07/24 09:14:29;;;;;;;18.40;14.20;;;;;;;;;;5107987;28;20493;-65
2022/07/24 09:16:23;;;;;;;17.40;13.63;;;;;;;;;;5108910;28;20032;-65
2022/07/24 09:19:09;;;;;;;20.55;14.27;;;;;;;;;;5108500;28;20049;-65
2022/07/24 09:21:38;;;;;;;18.42;13.90;;;;;;;;;;5108932;28;20067;-65
2022/07/24 09:24:12;;;;;;;18.35;14.18;;;;;;;;;;5109232;28;20152;-64
2022/07/24 09:26:48;;;;;;;19.70;14.50;;;;;;;;;;5108774;28;20028;-65
2022/07/24 09:29:15;;;;;;;18.98;14.93;;;;;;;;;;5108512;28;20016;-64
2022/07/24 09:31:56;;;;;;;20.88;14.52;;;;;;;;;;5108647;28;20024;-65
2022/07/24 09:34:22;;;;;;;18.02;14.38;;;;;;;;;;5108538;28;20019;-65
2022/07/24 09:36:57;;;;;;;18.98;14.32;;;;;;;;;;5108774;28;20039;-66
2022/07/24 09:39:27;;;;;;;20.98;14.85;;;;;;;;;;5108046;28;20499;-63
2022/07/24 09:41:54;;;;;;;20.75;14.55;;;;;;;;;;5100716;28;20024;-65
2022/07/24 09:44:20;;;;;;;19.75;13.98;;;;;;;;;;5097455;28;20020;-65
2022/07/24 09:46:47;;;;;;;19.85;15.25;;;;;;;;;;5089106;28;20028;-65
2022/07/24 09:49:20;;;;;;;19.40;14.50;;;;;;;;;;5074319;28;20028;-65
2022/07/24 09:51:49;;;;;;;19.13;14.60;;;;;;;;;;5073245;28;20108;-65
2022/07/24 09:54:28;;;;;;;18.77;14.68;;;;;;;;;;5074369;28;20033;-65
2022/07/24 09:56:54;;;;;;;20.80;14.13;;;;;;;;;;5074151;28;20469;-65
2022/07/24 09:59:26;;;;;;;18.10;13.80;;;;;;;;;;5073860;28;20024;-65
2022/07/24 10:01:52;;;;;;;18.30;14.32;;;;;;;;;;5074454;28;20431;-65
2022/07/24 10:04:19;;;;;;;19.35;14.52;;;;;;;;;;5072915;28;20016;-64
2022/07/24 10:06:46;;;;;;;20.90;15.23;;;;;;;;;;5073184;28;20111;-64
2022/07/24 10:09:13;;;;;;;18.93;14.20;;;;;;;;;;5072702;28;20017;-65
2022/07/24 10:11:40;;;;;;;19.95;14.27;;;;;;;;;;5074052;28;20023;-65
2022/07/24 10:14:06;;;;;;;19.08;14.43;;;;;;;;;;5073161;28;20027;-64
2022/07/24 10:16:32;;;;;;;20.75;14.35;;;;;;;;;;5082077;28;20036;-64
2022/07/24 10:18:58;;;;;;;18.38;14.40;;;;;;;;;;5084483;28;20499;-63
2022/07/24 10:21:24;;;;;;;18.63;13.93;;;;;;;;;;5084575;28;20035;-64
2022/07/24 10:23:56;;;;;;;20.02;13.85;;;;;;;;;;5077898;28;20511;-64
2022/07/24 10:26:34;;;;;;;19.13;14.00;;;;;;;;;;5073919;28;20032;-63
2022/07/24 10:29:07;;;;;;;20.17;14.17;;;;;;;;;;5071945;28;20086;-63
2022/07/24 10:31:34;;;;;;;18.60;13.88;;;;;;;;;;5074002;28;20023;-64
2022/07/24 10:34:02;;;;;;;18.63;14.73;;;;;;;;;;5073698;28;20016;-64
2022/07/24 10:36:31;;;;;;;19.13;14.20;;;;;;;;;;5073499;28;20052;-64
2022/07/24 10:39:01;;;;;;;20.85;15.00;;;;;;;;;;5071626;28;20028;-58
2022/07/24 10:41:27;;;;;;;19.17;14.65;;;;;;;;;;5073511;28;20072;-63
2022/07/24 10:44:13;;;;;;;20.55;14.93;;;;;;;;;;5072213;28;20032;-63
2022/07/24 10:46:57;;;;;;;18.92;14.43;;;;;;;;;;5088547;28;20429;-65
2022/07/24 10:49:39;;;;;;;18.30;14.18;;;;;;;;;;5092352;28;20020;-65
2022/07/24 10:52:05;;;;;;;20.10;14.63;;;;;;;;;;5092741;28;20438;-64
2022/07/24 10:54:31;;;;;;;19.52;14.35;;;;;;;;;;5092293;28;20127;-64
2022/07/24 10:56:57;;;;;;;20.02;14.57;;;;;;;;;;5093336;28;20476;-63
2022/07/24 10:59:37;;;;;;;17.58;14.15;;;;;;;;;;5092547;28;20019;-62
2022/07/24 11:02:22;;;;;;;18.98;14.55;;;;;;;;;;5093431;28;20024;-62
2022/07/24 11:04:48;;;;;;;19.42;14.90;;;;;;;;;;5092190;28;20032;-63
2022/07/24 11:07:14;;;;;;;21.75;15.40;;;;;;;;;;5093176;28;20035;-64
2022/07/24 11:09:55;;;;;;;18.75;15.50;;;;;;;;;;5099585;28;20031;-63
2022/07/24 11:12:29;;;;;;;21.33;16.77;;;;;;;;;;5113689;28;20057;-63
2022/07/24 11:15:53;;;;;;;18.85;15.02;;;;;;;;;;5113805;28;20395;-61
2022/07/24 11:17:48;;;;;;;22.63;15.40;;;;;;;;;;5113400;28;20023;-59
2022/07/24 11:20:18;;;;;;;19.25;15.13;;;;;;;;;;5113030;28;20103;-62
2022/07/24 11:22:51;;;;;;;18.90;14.55;;;;;;;;;;5084526;28;20466;-62
2022/07/24 11:25:21;;;;;;;21.42;16.27;;;;;;;;;;5082250;28;20212;-63
2022/07/24 11:27:48;;;;;;;19.35;15.68;;;;;;;;;;5080058;28;20028;-63
2022/07/24 11:30:15;;;;;;;18.83;14.73;;;;;;;;;;5072463;28;20028;-62
2022/07/24 11:32:41;;;;;;;20.83;16.75;;;;;;;;;;5072404;28;20021;-60
2022/07/24 11:35:08;;;;;;;22.35;16.30;;;;;;;;;;5092920;28;20084;-65
2022/07/24 11:37:37;;;;;;;19.50;14.82;;;;;;;;;;5089195;28;20020;-64
2022/07/24 11:40:06;;;;;;;18.73;15.52;;;;;;;;;;5081643;28;20020;-67
2022/07/24 11:42:32;;;;;;;20.80;15.95;;;;;;;;;;5077855;28;20475;-65
2022/07/24 11:44:58;;;;;;;20.08;16.38;;;;;;;;;;5074718;28;20031;-66
2022/07/24 11:47:26;;;;;;;19.60;16.25;;;;;;;;;;5090459;28;20028;-65
2022/07/24 11:49:55;;;;;;;24.60;16.52;;;;;;;;;;5082085;28;20027;-64
2022/07/24 11:52:32;;;;;;;20.33;16.23;;;;;;;;;;5080795;28;20021;-65
2022/07/24 11:54:59;;;;;;;19.73;16.20;;;;;;;;;;5082177;28;20537;-66
2022/07/24 11:57:27;;;;;;;19.83;17.08;;;;;;;;;;5080772;28;20109;-65
2022/07/24 11:59:54;;;;;;;22.38;15.85;;;;;;;;;;5082211;28;20016;-65
2022/07/24 12:02:21;;;;;;;19.63;16.25;;;;;;;;;;5079596;28;20029;-65
2022/07/24 12:04:48;;;;;;;21.25;15.80;;;;;;;;;;5081742;28;20219;-64
2022/07/24 12:07:18;;;;;;;19.30;16.27;;;;;;;;;;5082725;28;20058;-65
2022/07/24 12:09:45;;;;;;;20.45;15.52;;;;;;;;;;5074622;28;20050;-66
2022/07/24 12:12:25;;;;;;;22.00;16.73;;;;;;;;;;5084382;28;20082;-64
2022/07/24 12:14:51;;;;;;;19.25;16.63;;;;;;;;;;5079959;28;20436;-64
2022/07/24 12:17:18;;;;;;;21.00;17.40;;;;;;;;;;5091167;28;20032;-66
2022/07/24 12:19:54;;;;;;;19.20;15.07;;;;;;;;;;5077357;28;20405;-64
2022/07/24 12:22:20;;;;;;;20.92;16.27;;;;;;;;;;5072046;28;20021;-65
2022/07/24 12:24:47;;;;;;;18.42;15.35;;;;;;;;;;5071789;28;20024;-65
2022/07/24 12:27:31;;;;;;;21.02;16.75;;;;;;;;;;5071289;28;20024;-65
2022/07/24 12:29:57;;;;;;;20.63;16.50;;;;;;;;;;5070413;28;20145;-65
2022/07/24 12:32:23;;;;;;;19.65;15.80;;;;;;;;;;5071889;28;20259;-66
2022/07/24 12:34:49;;;;;;;19.80;16.15;;;;;;;;;;5071651;28;20582;-66
2022/07/24 12:37:16;;;;;;;19.23;15.60;;;;;;;;;;5071469;28;20043;-66
2022/07/24 12:39:49;;;;;;;20.33;15.48;;;;;;;;;;5070219;28;20032;-65
2022/07/24 12:42:16;;;;;;;19.33;15.40;;;;;;;;;;5071544;28;20032;-66
2022/07/24 12:44:44;;;;;;;19.20;15.07;;;;;;;;;;5071652;28;20024;-65
2022/07/24 12:47:13;;;;;;;;;;;;;;;;;;5071227;28;20098;-65
2022/07/24 12:49:43;;;;;;;20.00;15.98;;;;;;;;;;5071636;28;19908;-65
2022/07/24 12:52:27;;;;;;;19.50;15.88;;;;;;;;;;5071587;28;20032;-65
2022/07/24 12:54:54;;;;;;;20.10;15.35;;;;;;;;;;5069816;28;20110;-65
2022/07/24 12:57:23;;;;;;;18.83;15.30;;;;;;;;;;5070395;28;20025;-65
2022/07/24 12:59:50;;;;;;;18.38;15.07;;;;;;;;;;5069953;28;20024;-64
2022/07/24 13:02:27;;;;;;;17.67;14.77;;;;;;;;;;5070159;28;20388;-63
2022/07/24 13:04:56;;;;;;;17.48;15.07;;;;;;;;;;5075345;28;20025;-63
2022/07/24 13:07:23;;;;;;;18.85;15.35;;;;;;;;;;5090398;28;20059;-65
2022/07/24 13:09:49;;;;;;;18.45;14.48;;;;;;;;;;5085952;28;20020;-65
2022/07/24 13:12:15;;;;;;;17.95;14.73;;;;;;;;;;5069981;28;20090;-63
2022/07/24 13:14:42;;;;;;;18.75;15.23;;;;;;;;;;5069623;28;20086;-65
2022/07/24 13:17:09;;;;;;;19.88;15.27;;;;;;;;;;5070093;28;20031;-65
2022/07/24 13:19:36;;;;;;;19.30;15.68;;;;;;;;;;5069149;28;20440;-62
2022/07/24 13:22:02;;;;;;;18.50;15.65;;;;;;;;;;5072347;28;20020;-66
2022/07/24 13:24:29;;;;;;;18.40;15.50;;;;;;;;;;5082522;28;20487;-67
2022/07/24 13:26:55;;;;;;;18.13;15.38;;;;;;;;;;5114330;28;20118;-65
2022/07/24 13:29:21;;;;;;;20.48;15.57;;;;;;;;;;4727960;28;10000071;-65
2022/07/24 13:31:47;;;;;;;18.20;14.90;;;;;;;;;;5086487;28;20096;-65
2022/07/24 13:34:14;;;;;;;19.92;15.05;;;;;;;;;;5083708;28;20027;-64
2022/07/24 13:36:40;;;;;;;19.60;14.90;;;;;;;;;;5071379;28;20029;-64
2022/07/24 13:39:06;;;;;;;19.27;16.25;;;;;;;;;;5070922;28;20027;-65
2022/07/24 13:41:33;;;;;;;22.88;15.60;;;;;;;;;;5071668;28;20024;-64
2022/07/24 13:43:59;;;;;;;17.73;14.95;;;;;;;;;;5070312;28;20016;-64
2022/07/24 13:46:25;;;;;;;18.23;15.38;;;;;;;;;;5075197;28;20162;-64
2022/07/24 13:48:51;;;;;;;18.70;15.48;;;;;;;;;;5071204;28;20028;-64
2022/07/24 13:51:18;;;;;;;19.35;16.00;;;;;;;;;;5071541;28;20052;-65
2022/07/24 13:53:44;;;;;;;20.65;15.13;;;;;;;;;;5072540;28;20028;-63
2022/07/24 13:56:11;;;;;;;18.10;15.10;;;;;;;;;;5071411;28;20439;-64
2022/07/24 13:58:39;;;;;;;19.27;15.50;;;;;;;;;;5069918;28;20399;-64
2022/07/24 14:01:05;;;;;;;20.75;15.07;;;;;;;;;;5074857;28;20047;-64
2022/07/24 14:03:32;;;;;;;17.70;14.93;;;;;;;;;;5082059;28;20032;-65
2022/07/24 14:06:02;;;;;;;18.77;15.13;;;;;;;;;;5080238;28;20019;-66
2022/07/24 14:08:30;;;;;;;19.02;15.77;;;;;;;;;;5081783;28;20097;-63
2022/07/24 14:10:56;;;;;;;18.48;15.70;;;;;;;;;;5080110;28;20028;-65
2022/07/24 14:13:22;;;;;;;18.48;14.95;;;;;;;;;;5081473;28;20392;-63
2022/07/24 14:15:48;;;;;;;17.88;15.20;;;;;;;;;;5084962;28;20088;-63
2022/07/24 14:18:14;;;;;;;20.50;15.30;;;;;;;;;;5091108;28;20115;-64
2022/07/24 14:20:40;;;;;;;18.70;15.40;;;;;;;;;;5091198;28;20028;-62
2022/07/24 14:23:06;;;;;;;17.67;15.10;;;;;;;;;;5090728;28;20040;-62
2022/07/24 14:25:32;;;;;;;19.67;15.38;;;;;;;;;;5091309;28;20032;-62
2022/07/24 14:27:58;;;;;;;18.60;15.43;;;;;;;;;;5087925;28;20029;-66
2022/07/24 14:30:24;;;;;;;18.10;15.10;;;;;;;;;;5080668;28;20059;-63
2022/07/24 14:32:51;;;;;;;18.95;15.68;;;;;;;;;;5081157;28;20118;-62
2022/07/24 14:35:17;;;;;;;21.42;15.75;;;;;;;;;;5076871;28;20032;-63
2022/07/24 14:37:43;;;;;;;18.23;15.27;;;;;;;;;;5083226;28;20514;-64
2022/07/24 14:40:09;;;;;;;19.52;15.27;;;;;;;;;;5075719;28;20058;-64
2022/07/24 14:42:35;;;;;;;17.52;14.70;;;;;;;;;;5069533;28;20028;-63
2022/07/24 14:45:02;;;;;;;18.27;15.00;;;;;;;;;;5072680;28;20056;-64
2022/07/24 14:47:28;;;;;;;20.40;15.95;;;;;;;;;;5082067;28;20560;-65
2022/07/24 14:49:55;;;;;;;19.35;15.80;;;;;;;;;;5080215;28;20020;-64
2022/07/24 14:52:21;;;;;;;22.73;16.05;;;;;;;;;;5083116;28;20015;-62
2022/07/24 14:54:47;;;;;;;19.77;15.55;;;;;;;;;;5072889;28;20455;-63
2022/07/24 14:57:14;;;;;;;18.42;14.95;;;;;;;;;;5073733;28;20511;-64
2022/07/24 14:59:40;;;;;;;19.60;15.27;;;;;;;;;;5083827;28;20070;-64
2022/07/24 15:02:06;;;;;;;19.58;15.07;;;;;;;;;;5090634;28;20473;-63
2022/07/24 15:04:32;;;;;;;19.10;15.52;;;;;;;;;;5084107;28;20036;-63
2022/07/24 15:06:58;;;;;;;19.27;15.57;;;;;;;;;;5083016;28;20114;-64
2022/07/24 15:09:24;;;;;;;17.60;14.90;;;;;;;;;;5090094;28;20654;-63
2022/07/24 15:11:50;;;;;;;18.98;14.98;;;;;;;;;;5090635;28;20107;-64
2022/07/24 15:14:16;;;;;;;17.98;14.93;;;;;;;;;;5091198;28;20024;-65
2022/07/24 15:16:43;;;;;;;19.00;15.82;;;;;;;;;;5090935;28;20490;-62
2022/07/24 15:19:09;;;;;;;19.15;15.88;;;;;;;;;;5090851;28;20040;-63
2022/07/24 15:21:35;;;;;;;17.60;15.18;;;;;;;;;;5091874;28;20547;-63
2022/07/24 15:24:01;;;;;;;18.63;15.45;;;;;;;;;;5093158;28;20034;-66
2022/07/24 15:26:28;;;;;;;17.13;14.45;;;;;;;;;;5081562;28;20120;-65
2022/07/24 15:28:54;;;;;;;17.67;14.95;;;;;;;;;;5073681;28;20112;-61
2022/07/24 15:31:21;;;;;;;19.00;14.98;;;;;;;;;;5080675;28;20733;-62
2022/07/24 15:33:47;;;;;;;21.23;16.98;;;;;;;;;;5081733;28;20028;-62
2022/07/24 15:36:13;;;;;;;18.73;15.10;;;;;;;;;;5080720;28;20095;-62
2022/07/24 15:38:39;;;;;;;18.35;15.10;;;;;;;;;;5074576;28;20738;-62
2022/07/24 15:41:05;;;;;;;17.73;14.73;;;;;;;;;;5069943;28;20020;-63
2022/07/24 15:43:32;;;;;;;17.75;14.82;;;;;;;;;;5070921;28;20024;-61
2022/07/24 15:45:58;;;;;;;18.92;14.85;;;;;;;;;;4723001;27;10000104;-59
2022/07/24 15:48:24;;;;;;;18.00;15.10;;;;;;;;;;5083744;28;20044;-60
2022/07/24 15:50:50;;;;;;;18.80;15.55;;;;;;;;;;5080020;28;20024;-63
2022/07/24 15:53:16;;;;;;;17.92;15.20;;;;;;;;;;5069886;28;20111;-62
2022/07/24 15:55:42;;;;;;;18.27;15.35;;;;;;;;;;5069108;28;20027;-64
2022/07/24 15:58:08;;;;;;;18.42;15.18;;;;;;;;;;5068490;28;20020;-63
2022/07/24 16:00:35;;;;;;;17.38;14.70;;;;;;;;;;5069360;28;20012;-61
2022/07/24 16:03:01;;;;;;;20.95;15.00;;;;;;;;;;5068965;28;20063;-62
2022/07/24 16:05:27;;;;;;;19.80;15.68;;;;;;;;;;5068987;28;20102;-62
2022/07/24 16:07:54;;;;;;;17.38;15.10;;;;;;;;;;5067462;28;20021;-62
2022/07/24 16:10:21;;;;;;;18.38;15.05;;;;;;;;;;5071174;28;20229;-61
2022/07/24 16:12:47;;;;;;;17.13;14.43;;;;;;;;;;5077620;28;20034;-62
2022/07/24 16:15:14;;;;;;;18.73;15.07;;;;;;;;;;5071771;28;20349;-62
2022/07/24 16:17:41;;;;;;;17.02;14.80;;;;;;;;;;5068540;28;20024;-62
2022/07/24 16:20:08;;;;;;;17.10;14.48;;;;;;;;;;5068906;28;20245;-62
2022/07/24 16:22:35;;;;;;;17.88;14.85;;;;;;;;;;5077031;28;20038;-62
2022/07/24 16:25:01;;;;;;;18.70;14.95;;;;;;;;;;5068876;28;20036;-61
2022/07/24 16:27:28;;;;;;;17.38;14.50;;;;;;;;;;5067676;28;20516;-61
2022/07/24 16:29:54;;;;;;;18.35;15.15;;;;;;;;;;5069092;28;20035;-61
2022/07/24 16:32:20;;;;;;;19.42;15.55;;;;;;;;;;5067986;28;20111;-62
2022/07/24 16:34:46;;;;;;;21.58;15.30;;;;;;;;;;5068712;28;20033;-63
2022/07/24 16:37:12;;;;;;;17.85;14.88;;;;;;;;;;5068584;28;20077;-62
2022/07/24 16:39:39;;;;;;;18.48;14.35;;;;;;;;;;5068620;28;20101;-62
2022/07/24 16:42:05;;;;;;;17.63;14.90;;;;;;;;;;5067595;28;20085;-62
2022/07/24 16:44:31;;;;;;;18.05;15.25;;;;;;;;;;5072623;28;20040;-62
2022/07/24 16:46:57;;;;;;;18.52;15.25;;;;;;;;;;5094476;28;20020;-63
2022/07/24 16:49:23;;;;;;;17.65;14.60;;;;;;;;;;5085523;28;20016;-62
2022/07/24 16:51:49;;;;;;;19.00;14.98;;;;;;;;;;5083070;28;20059;-62
2022/07/24 16:54:15;;;;;;;17.35;14.75;;;;;;;;;;4738411;28;10000056;-61
2022/07/24 16:56:42;;;;;;;17.70;15.07;;;;;;;;;;5083469;28;20032;-61
2022/07/24 16:59:08;;;;;;;18.00;14.80;;;;;;;;;;5081457;28;20528;-62
2022/07/24 17:01:34;;;;;;;17.35;14.57;;;;;;;;;;5088706;28;20086;-62
2022/07/24 17:04:01;;;;;;;17.83;14.93;;;;;;;;;;5090937;28;20028;-62
2022/07/24 17:06:27;;;;;;;19.00;14.85;;;;;;;;;;5078995;28;20028;-62
2022/07/24 17:08:53;;;;;;;17.33;14.57;;;;;;;;;;5073909;28;20470;-61
2022/07/24 17:11:19;;;;;;;17.52;14.73;;;;;;;;;;5070799;28;20116;-61
2022/07/24 17:13:45;;;;;;;18.75;14.85;;;;;;;;;;5072440;28;20021;-61
2022/07/24 17:16:11;;;;;;;16.85;14.25;;;;;;;;;;5077605;28;20024;-61
2022/07/24 17:18:37;;;;;;;17.08;13.90;;;;;;;;;;5079306;28;20028;-59
2022/07/24 17:21:03;;;;;;;17.27;14.65;;;;;;;;;;5089917;28;20377;-63
2022/07/24 17:23:29;;;;;;;18.10;14.18;;;;;;;;;;5093002;28;20055;-62
2022/07/24 17:25:56;;;;;;;17.88;14.98;;;;;;;;;;5094946;28;20467;-62
2022/07/24 17:28:22;;;;;;;20.20;15.27;;;;;;;;;;5094060;28;20442;-63
2022/07/24 17:30:49;;;;;;;18.67;14.65;;;;;;;;;;5082242;28;20107;-62
2022/07/24 17:33:15;;;;;;;17.75;14.48;;;;;;;;;;5082003;28;20013;-62
2022/07/24 17:35:41;;;;;;;17.10;14.30;;;;;;;;;;5083388;28;20024;-60
2022/07/24 17:38:07;;;;;;;17.52;14.60;;;;;;;;;;5091940;28;20107;-62
2022/07/24 17:40:33;;;;;;;17.52;14.38;;;;;;;;;;5090313;28;20069;-62
2022/07/24 17:43:00;;;;;;;17.50;14.70;;;;;;;;;;5083250;28;20138;-62
2022/07/24 17:45:26;;;;;;;18.42;14.93;;;;;;;;;;5091494;28;20488;-62
2022/07/24 17:47:52;;;;;;;17.92;14.70;;;;;;;;;;5090633;28;20028;-60
2022/07/24 17:50:18;;;;;;;18.85;13.90;;;;;;;;;;5093280;28;20043;-60
2022/07/24 17:52:45;;;;;;;17.73;14.20;;;;;;;;;;5092674;28;20020;-60
2022/07/24 17:55:11;;;;;;;19.48;14.55;;;;;;;;;;5094800;28;20017;-62
2022/07/24 17:57:38;;;;;;;18.35;14.43;;;;;;;;;;4735432;28;10000544;-60
2022/07/24 18:00:06;;;;;;;18.15;14.55;;;;;;;;;;5090220;28;20028;-61
2022/07/24 18:02:32;;;;;;;;;;;;;;;;;;5091888;28;20093;-57
2022/07/24 18:04:58;;;;;;;18.65;14.02;;;;;;;;;;5088215;28;19919;-61
2022/07/24 18:07:24;;;;;;;18.20;13.98;;;;;;;;;;5089435;28;20028;-61
2022/07/24 18:09:50;;;;;;;17.25;14.20;;;;;;;;;;5085464;28;20020;-59
2022/07/24 18:12:16;;;;;;;19.20;13.73;;;;;;;;;;5077808;28;20026;-62
2022/07/24 18:14:42;;;;;;;18.27;13.95;;;;;;;;;;5076035;28;20016;-62
2022/07/24 18:17:08;;;;;;;19.42;13.98;;;;;;;;;;5090905;28;20148;-59
2022/07/24 18:19:36;;;;;;;17.88;14.00;;;;;;;;;;5090973;28;20032;-61
2022/07/24 18:22:02;;;;;;;17.95;14.10;;;;;;;;;;5087154;28;20028;-62
2022/07/24 18:24:28;;;;;;;18.58;14.02;;;;;;;;;;5085158;28;20036;-62
2022/07/24 18:26:54;;;;;;;20.83;14.68;;;;;;;;;;5081784;28;20448;-63
2022/07/24 18:29:20;;;;;;;18.48;14.40;;;;;;;;;;5080390;28;20020;-62
2022/07/24 18:31:46;;;;;;;18.35;14.15;;;;;;;;;;5081290;28;20021;-62
2022/07/24 18:34:13;;;;;;;17.30;14.32;;;;;;;;;;5079442;28;20438;-61
2022/07/24 18:36:39;;;;;;;18.38;14.02;;;;;;;;;;5081175;28;20089;-61
2022/07/24 18:39:06;;;;;;;16.75;13.63;;;;;;;;;;5081127;28;20652;-62
2022/07/24 18:41:32;;;;;;;18.08;14.13;;;;;;;;;;5078929;28;20063;-63
2022/07/24 18:43:58;;;;;;;18.60;14.70;;;;;;;;;;5080132;28;20492;-61
2022/07/24 18:46:24;;;;;;;17.63;14.40;;;;;;;;;;5086917;28;20089;-62
2022/07/24 18:48:50;;;;;;;18.00;14.18;;;;;;;;;;5091649;28;20020;-63
2022/07/24 18:51:16;;;;;;;19.50;14.38;;;;;;;;;;5092925;28;20053;-61
2022/07/24 18:53:42;;;;;;;21.17;13.85;;;;;;;;;;5093581;28;20013;-57
2022/07/24 18:56:09;;;;;;;19.83;14.05;;;;;;;;;;4732148;27;10000463;-58
2022/07/24 18:58:35;;;;;;;19.40;14.40;;;;;;;;;;5074093;28;20495;-60
2022/07/24 19:01:01;;;;;;;18.83;14.63;;;;;;;;;;5085276;28;20131;-61
2022/07/24 19:03:27;;;;;;;17.80;13.80;;;;;;;;;;5087961;28;20031;-59
2022/07/24 19:05:53;;;;;;;17.77;13.77;;;;;;;;;;5082944;28;20027;-62
2022/07/24 19:08:19;;;;;;;18.27;13.85;;;;;;;;;;5081262;28;20017;-60
2022/07/24 19:10:45;;;;;;;20.75;14.35;;;;;;;;;;5087313;28;20016;-62
2022/07/24 19:13:11;;;;;;;20.00;14.45;;;;;;;;;;5093255;28;20087;-62
2022/07/24 19:15:37;;;;;;;18.63;14.32;;;;;;;;;;4737715;28;9999890;-62
2022/07/24 19:18:03;;;;;;;20.98;15.07;;;;;;;;;;5089644;28;20044;-60
2022/07/24 19:20:29;;;;;;;18.63;15.23;;;;;;;;;;5089600;28;20466;-62
2022/07/24 19:22:56;;;;;;;18.33;14.85;;;;;;;;;;5093710;28;20036;-62
2022/07/24 19:25:22;;;;;;;18.38;14.40;;;;;;;;;;5093479;28;20028;-61
2022/07/24 19:27:48;;;;;;;18.92;14.40;;;;;;;;;;5092941;28;20036;-62
2022/07/24 19:30:14;;;;;;;19.05;14.35;;;;;;;;;;5076704;28;20020;-63
2022/07/24 19:32:40;;;;;;;19.13;14.68;;;;;;;;;;5070073;28;20039;-63
2022/07/24 19:35:07;;;;;;;19.27;14.82;;;;;;;;;;5069765;28;20528;-61
2022/07/24 19:37:33;;;;;;;20.00;14.98;;;;;;;;;;5077763;28;20111;-61
2022/07/24 19:39:59;;;;;;;20.23;15.02;;;;;;;;;;5069256;28;20070;-61
2022/07/24 19:42:25;;;;;;;18.85;15.52;;;;;;;;;;5068446;28;20028;-62
2022/07/24 19:44:51;;;;;;;20.30;15.68;;;;;;;;;;5069553;28;20097;-62
2022/07/24 19:47:23;;;;;;;20.52;14.95;;;;;;;;;;5069159;28;20029;-62
2022/07/24 19:49:49;;;;;;;21.35;16.52;;;;;;;;;;5069285;28;20024;-62
2022/07/24 19:52:17;;;;;;;18.90;14.50;;;;;;;;;;5076531;28;20025;-60
2022/07/24 19:54:45;;;;;;;18.90;15.03;;;;;;;;;;5081484;28;20028;-62
2022/07/24 19:57:11;;;;;;;19.88;14.48;;;;;;;;;;5088835;28;20039;-59
2022/07/24 19:59:37;;;;;;;18.92;14.77;;;;;;;;;;5088760;28;20411;-62
2022/07/24 20:02:04;;;;;;;22.83;15.70;;;;;;;;;;5077545;28;20485;-62
2022/07/24 20:04:30;;;;;;;18.77;14.48;;;;;;;;;;5080600;28;20477;-60
2022/07/24 20:06:56;;;;;;;21.52;16.23;;;;;;;;;;5076828;28;20440;-62
2022/07/24 20:09:22;;;;;;;20.33;15.68;;;;;;;;;;5069065;28;20621;-61
2022/07/24 20:11:48;;;;;;;21.10;14.25;;;;;;;;;;5069307;28;20035;-62
2022/07/24 20:14:14;;;;;;;19.17;15.32;;;;;;;;;;5069210;28;20104;-63
2022/07/24 20:16:41;;;;;;;20.30;15.70;;;;;;;;;;5067547;28;20115;-66
2022/07/24 20:19:07;;;;;;;22.00;15.77;;;;;;;;;;5069025;28;20028;-62
2022/07/24 20:21:33;;;;;;;20.02;15.82;;;;;;;;;;5068891;28;20055;-61
2022/07/24 20:24:02;;;;;;;19.45;15.63;;;;;;;;;;5069384;28;20093;-62
2022/07/24 20:26:28;;;;;;;18.55;14.85;;;;;;;;;;5069166;28;20035;-61
2022/07/24 20:28:54;;;;;;;18.88;14.35;;;;;;;;;;5068495;28;20020;-61
2022/07/24 20:31:21;;;;;;;18.67;14.70;;;;;;;;;;5069041;28;20052;-62
2022/07/24 20:33:47;;;;;;;20.40;15.35;;;;;;;;;;5068788;28;20031;-62
2022/07/24 20:36:13;;;;;;;21.15;15.23;;;;;;;;;;5068905;28;20139;-61
2022/07/24 20:38:40;;;;;;;19.95;15.90;;;;;;;;;;5070460;28;20496;-61
2022/07/24 20:41:06;;;;;;;20.10;15.25;;;;;;;;;;5070845;28;20484;-61
2022/07/24 20:43:32;;;;;;;22.15;16.77;;;;;;;;;;5071167;28;20035;-62
2022/07/24 20:45:58;;;;;;;26.98;23.35;;;;;;;;;;5081234;28;20027;-61
2022/07/24 20:48:24;;;;;;;19.75;15.23;;;;;;;;;;5089037;28;20016;-61
2022/07/24 20:50:51;;;;;;;21.85;16.13;;;;;;;;;;5086426;28;20028;-62
2022/07/24 20:53:17;;;;;;;20.90;16.42;;;;;;;;;;5077194;28;20055;-61
2022/07/24 20:55:43;;;;;;;23.33;17.83;;;;;;;;;;5079304;28;20028;-63
2022/07/24 20:58:09;;;;;;;20.90;17.30;;;;;;;;;;5077058;28;20035;-60
2022/07/24 21:00:35;;;;;;;21.67;16.13;;;;;;;;;;5070661;28;20408;-61
2022/07/24 21:03:01;;;;;;;19.33;15.23;;;;;;;;;;5068716;28;20028;-61
2022/07/24 21:05:27;;;;;;;24.25;20.20;;;;;;;;;;5067133;28;20131;-61
2022/07/24 21:07:53;;;;;;;20.33;15.23;;;;;;;;;;5072261;28;20059;-62
2022/07/24 21:10:20;;;;;;;28.35;22.63;;;;;;;;;;5085768;28;20032;-62
2022/07/24 21:12:46;;;;;;;20.40;15.95;;;;;;;;;;5087690;28;20024;-62
2022/07/24 21:15:12;;;;;;;21.45;16.48;;;;;;;;;;5089059;28;20032;-63
2022/07/24 21:17:38;;;;;;;19.38;14.70;;;;;;;;;;5094500;28;20036;-62
2022/07/24 21:20:04;;;;;;;19.63;15.20;;;;;;;;;;5099212;28;20092;-63
2022/07/24 21:22:30;;;;;;;22.75;18.65;;;;;;;;;;5094800;28;20361;-61
2022/07/24 21:24:56;;;;;;;20.92;15.48;;;;;;;;;;5074150;28;20581;-61
2022/07/24 21:27:22;;;;;;;21.35;16.55;;;;;;;;;;5069620;28;20488;-61
2022/07/24 21:29:48;;;;;;;23.33;16.38;;;;;;;;;;5080331;28;20073;-62
2022/07/24 21:32:14;;;;;;;20.55;15.85;;;;;;;;;;5090793;28;20046;-60
2022/07/24 21:34:40;;;;;;;19.77;15.10;;;;;;;;;;5089558;28;20038;-61
2022/07/24 21:37:07;;;;;;;21.63;16.17;;;;;;;;;;5090911;28;20017;-61
2022/07/24 21:39:33;;;;;;;23.38;20.67;;;;;;;;;;5090780;28;20020;-62
2022/07/24 21:41:59;;;;;;;26.65;22.05;;;;;;;;;;5090762;28;20112;-62
2022/07/24 21:44:25;;;;;;;23.23;18.38;;;;;;;;;;5094577;28;20046;-62
2022/07/24 21:46:51;;;;;;;23.25;18.67;;;;;;;;;;5094190;28;20027;-62
2022/07/24 21:49:17;;;;;;;24.70;19.00;;;;;;;;;;5094211;28;20477;-62
2022/07/24 21:51:43;;;;;;;21.90;14.73;;;;;;;;;;5093140;28;20076;-63
2022/07/24 21:54:10;;;;;;;19.63;16.13;;;;;;;;;;5094135;28;20020;-61
2022/07/24 21:56:36;;;;;;;21.48;16.50;;;;;;;;;;5094094;28;20032;-61
2022/07/24 21:59:03;;;;;;;22.55;15.07;;;;;;;;;;5092794;28;20437;-63
2022/07/24 22:01:29;;;;;;;18.75;13.63;;;;;;;;;;5092806;28;20035;-62
2022/07/24 22:03:55;;;;;;;19.38;14.30;;;;;;;;;;5092824;28;20020;-62
2022/07/24 22:06:23;;;;;;;18.25;14.07;;;;;;;;;;5094107;28;20077;-62
2022/07/24 22:08:49;;;;;;;;;;;;;;;;;;5093929;28;20016;-61
2022/07/24 22:11:15;;;;;;;22.00;14.85;;;;;;;;;;5094022;28;19904;-63
2022/07/24 22:13:41;;;;;;;20.98;15.35;;;;;;;;;;4729015;28;10000572;-63
2022/07/24 22:16:07;;;;;;;21.17;16.48;;;;;;;;;;5074299;28;20107;-61
2022/07/24 22:18:33;;;;;;;18.70;13.82;;;;;;;;;;5081156;28;20144;-62
2022/07/24 22:20:59;;;;;;;28.00;15.80;;;;;;;;;;5081322;28;20024;-61
2022/07/24 22:23:25;;;;;;;19.45;15.07;;;;;;;;;;5079715;28;20035;-62
2022/07/24 22:25:51;;;;;;;20.10;16.02;;;;;;;;;;5080402;28;20491;-59
2022/07/24 22:28:17;;;;;;;22.80;14.55;;;;;;;;;;5075989;28;20028;-58
2022/07/24 22:30:43;;;;;;;22.05;15.52;;;;;;;;;;5089983;28;20028;-62
2022/07/24 22:33:09;;;;;;;19.90;14.57;;;;;;;;;;5091228;28;20438;-63
2022/07/24 22:35:35;;;;;;;21.45;14.80;;;;;;;;;;5091155;28;20043;-63
2022/07/24 22:38:02;;;;;;;25.55;16.67;;;;;;;;;;5090325;28;20039;-62
2022/07/24 22:40:29;;;;;;;19.63;14.70;;;;;;;;;;5081209;28;20028;-63
2022/07/24 22:42:55;;;;;;;21.58;15.80;;;;;;;;;;5080026;28;20639;-63
2022/07/24 22:45:21;;;;;;;20.88;14.55;;;;;;;;;;5079657;28;20028;-61
2022/07/24 22:47:48;;;;;;;18.85;14.50;;;;;;;;;;5073935;28;20048;-62
2022/07/24 22:50:14;;;;;;;20.92;14.85;;;;;;;;;;5079175;28;20429;-65
2022/07/24 22:52:40;;;;;;;19.55;14.77;;;;;;;;;;5075347;28;20104;-62
2022/07/24 22:55:07;;;;;;;22.00;15.73;;;;;;;;;;5070117;28;20028;-62